Terminal Aerodrome Forecast
Issued by NWS Anchorage, AK

Home | Current Version | Previous Version | Text Only | Print | Product List | Glossary On
Versions: 1 2 3 4 5 6 7 8 9 10 11 12 13 14 15 16 17 18 19 20 21 22 23 24 25 26 27 28 29 30 31 32 33 34 35 36 37 38 39 40
000
FTAK31 PANC 172007 AAB
TAFANC
TAF AMD
PANC 172007Z 1720/1824 VRB04KT P6SM SCT020 BKN060 OVC080
     FM172200 VRB04KT P6SM SCT030 BKN070
     FM180600 36008KT P6SM SCT070 BKN150=

USA.gov is the U.S. government's official web portal to all federal, state and local government web resources and services.